createdAt,value
2022-11-25T00:01:09.136Z,91.67
2022-11-25T00:03:38.743Z,89.97
2022-11-25T00:06:12.049Z,90.02
2022-11-25T00:08:40.615Z,90.25
2022-11-25T00:11:08.762Z,94.03
2022-11-25T00:13:37.747Z,94.27
2022-11-25T00:16:08.001Z,94.50
2022-11-25T00:18:36.667Z,93.86
2022-11-25T00:21:09.356Z,92.78
2022-11-25T00:23:38.420Z,93.16
2022-11-25T00:26:10.470Z,95.37
2022-11-25T00:28:39.233Z,96.97
2022-11-25T00:31:09.426Z,96.43
2022-11-25T00:33:37.605Z,98.18
2022-11-25T00:36:09.193Z,99.86
2022-11-25T00:38:37.186Z,98.43
2022-11-25T00:41:22.867Z,98.39
2022-11-25T00:44:08.481Z,99.73
2022-11-25T00:46:36.435Z,99.74
2022-11-25T00:49:04.442Z,97.45
2022-11-25T00:51:33.707Z,97.79
2022-11-25T00:54:01.655Z,99.30
2022-11-25T00:56:30.474Z,97.29
2022-11-25T00:58:59.455Z,97.74
2022-11-25T01:01:27.610Z,97.36
2022-11-25T01:03:55.540Z,96.65
2022-11-25T01:06:23.976Z,96.15
2022-11-25T01:08:53.299Z,94.26
2022-11-25T01:11:23.965Z,96.60
2022-11-25T01:14:00.703Z,96.55
2022-11-25T01:16:30.364Z,96.57
2022-11-25T01:18:59.341Z,94.54
2022-11-25T01:21:29.769Z,94.12
2022-11-25T01:24:00.687Z,94.34
2022-11-25T01:26:29.548Z,94.84
2022-11-25T01:28:59.128Z,94.38
2022-11-25T01:31:29.116Z,94.02
2022-11-25T01:34:02.799Z,95.60
2022-11-25T01:36:36.483Z,95.32
2022-11-25T01:39:06.204Z,96.35
2022-11-25T01:41:36.651Z,97.80
2022-11-25T01:44:10.929Z,97.32
2022-11-25T01:46:48.016Z,96.26
2022-11-25T01:49:18.936Z,94.32
2022-11-25T01:51:52.290Z,93.85
2022-11-25T01:54:27.053Z,94.27
2022-11-25T01:57:00.939Z,92.70
2022-11-25T01:59:31.083Z,90.97
2022-11-25T02:01:59.989Z,90.35
2022-11-25T02:04:35.401Z,90.62
2022-11-25T02:07:10.904Z,90.23
2022-11-25T02:09:42.515Z,90.23
2022-11-25T02:12:11.121Z,89.11
2022-11-25T02:14:39.308Z,87.89
2022-11-25T02:17:07.297Z,88.00
2022-11-25T02:19:48.262Z,88.58
2022-11-25T02:22:25.713Z,90.42
2022-11-25T02:25:03.571Z,91.17
2022-11-25T02:27:33.003Z,92.34
2022-11-25T02:30:01.087Z,91.00
2022-11-25T02:32:29.051Z,90.66
2022-11-25T02:34:57.099Z,89.90
2022-11-25T02:37:25.479Z,88.86
2022-11-25T02:39:54.691Z,87.98
2022-11-25T02:42:24.167Z,88.89
2022-11-25T02:44:53.728Z,89.15
2022-11-25T02:47:21.657Z,91.27
2022-11-25T02:49:49.557Z,90.15
2022-11-25T02:52:17.525Z,89.65
2022-11-25T02:54:45.460Z,90.25
2022-11-25T02:57:13.355Z,90.94
2022-11-25T02:59:41.272Z,89.91
2022-11-25T03:02:11.247Z,89.93
2022-11-25T03:04:39.218Z,89.30
2022-11-25T03:07:07.126Z,89.54
2022-11-25T03:09:35.151Z,89.49
2022-11-25T03:12:21.292Z,88.71
2022-11-25T03:14:54.131Z,88.33
2022-11-25T03:17:23.490Z,87.18
2022-11-25T03:19:51.441Z,88.37
2022-11-25T03:22:19.351Z,90.15
2022-11-25T03:24:47.324Z,91.06
2022-11-25T03:27:15.521Z,91.47
2022-11-25T03:29:43.616Z,92.93
2022-11-25T03:32:11.601Z,95.11
2022-11-25T03:34:41.149Z,95.30
2022-11-25T03:37:09.510Z,94.61
2022-11-25T03:39:38.400Z,93.75
2022-11-25T03:42:07.993Z,94.21
2022-11-25T03:44:36.291Z,95.43
2022-11-25T03:47:04.944Z,96.31
2022-11-25T03:49:33.547Z,95.96
2022-11-25T03:52:03.070Z,95.69
2022-11-25T03:54:31.908Z,96.99
2022-11-25T03:57:19.084Z,96.44
2022-11-25T03:59:47.095Z,97.90
2022-11-25T04:02:16.037Z,98.36
2022-11-25T04:04:44.141Z,97.71
2022-11-25T04:07:13.759Z,98.12
2022-11-25T04:09:42.138Z,97.94
2022-11-25T04:12:27.993Z,97.69
2022-11-25T04:15:06.028Z,96.12
2022-11-25T04:17:34.220Z,97.07
2022-11-25T04:20:02.194Z,98.10
2022-11-25T04:22:32.375Z,98.40
2022-11-25T04:25:02.658Z,98.28
2022-11-25T04:27:30.627Z,97.42
2022-11-25T04:29:59.085Z,99.48
2022-11-25T04:32:28.574Z,99.16
2022-11-25T04:34:56.618Z,99.44
2022-11-25T04:37:24.583Z,100.00
2022-11-25T04:39:55.030Z,99.61
2022-11-25T04:42:36.667Z,98.97
2022-11-25T04:45:25.668Z,98.81
2022-11-25T04:47:56.119Z,97.53
2022-11-25T04:50:25.552Z,97.73
2022-11-25T04:53:03.843Z,97.10
2022-11-25T04:55:33.348Z,97.98
2022-11-25T04:58:05.183Z,97.12
2022-11-25T05:00:34.323Z,96.00
2022-11-25T05:03:03.301Z,95.58
2022-11-25T05:05:33.135Z,93.91
2022-11-25T05:08:01.115Z,93.40
2022-11-25T05:10:29.339Z,93.31
2022-11-25T05:12:59.646Z,93.26
2022-11-25T05:15:27.587Z,94.29
2022-11-25T05:17:56.138Z,92.86
2022-11-25T05:20:39.883Z,92.36
2022-11-25T05:23:08.761Z,92.41
2022-11-25T05:25:36.701Z,92.35
2022-11-25T05:28:24.269Z,93.35
2022-11-25T05:30:52.366Z,92.41
2022-11-25T05:33:21.450Z,92.23
2022-11-25T05:35:55.631Z,89.65
2022-11-25T05:38:24.827Z,88.72
2022-11-25T05:40:53.369Z,88.68
2022-11-25T05:43:21.558Z,88.55
2022-11-25T05:45:50.880Z,88.44
2022-11-25T05:48:19.094Z,89.31
2022-11-25T05:50:47.877Z,89.81
2022-11-25T05:53:22.090Z,90.23
2022-11-25T05:55:57.489Z,91.59
2022-11-25T05:58:45.866Z,91.73
2022-11-25T06:01:17.949Z,91.74
2022-11-25T06:03:47.440Z,90.89
2022-11-25T06:06:16.905Z,89.46
2022-11-25T06:08:45.459Z,88.95
2022-11-25T06:11:17.470Z,88.69
2022-11-25T06:13:46.634Z,88.34
2022-11-25T06:16:17.908Z,90.02
2022-11-25T06:18:50.179Z,90.90
2022-11-25T06:21:19.366Z,89.84
2022-11-25T06:23:47.671Z,88.88
2022-11-25T06:26:19.877Z,88.37
2022-11-25T06:28:48.491Z,88.01
2022-11-25T06:31:20.603Z,89.35
2022-11-25T06:34:15.334Z,89.00
2022-11-25T06:36:43.447Z,89.12
2022-11-25T06:39:11.387Z,89.09
2022-11-25T06:41:39.271Z,89.34
2022-11-25T06:44:07.226Z,89.35
2022-11-25T06:46:36.521Z,89.63
2022-11-25T06:49:04.945Z,90.15
2022-11-25T06:51:32.905Z,90.18
2022-11-25T06:54:00.853Z,89.20
2022-11-25T06:56:30.279Z,88.92
2022-11-25T06:58:58.334Z,89.88
2022-11-25T07:01:28.330Z,91.22
2022-11-25T07:04:00.740Z,91.57
2022-11-25T07:06:29.236Z,89.65
2022-11-25T07:08:58.048Z,90.87
2022-11-25T07:11:27.670Z,89.37
2022-11-25T07:13:58.680Z,88.88
2022-11-25T07:16:27.183Z,88.16
2022-11-25T07:18:55.192Z,87.03
2022-11-25T07:21:26.197Z,86.46
2022-11-25T07:23:54.484Z,86.79
2022-11-25T07:26:25.351Z,87.23
2022-11-25T07:28:54.798Z,87.04
2022-11-25T07:31:29.073Z,86.47
2022-11-25T07:34:01.442Z,86.24
2022-11-25T07:36:31.789Z,86.28
2022-11-25T07:39:01.943Z,85.55
2022-11-25T07:41:30.690Z,85.67
2022-11-25T07:44:00.448Z,85.33
2022-11-25T07:46:32.356Z,85.09
2022-11-25T07:49:03.711Z,85.89
2022-11-25T07:51:34.947Z,86.01
2022-11-25T07:54:04.938Z,85.23
2022-11-25T07:56:34.578Z,84.89
2022-11-25T07:59:02.631Z,83.69
2022-11-25T08:01:30.620Z,83.37
2022-11-25T08:03:59.345Z,84.04
2022-11-25T08:06:29.047Z,85.47
2022-11-25T08:09:03.416Z,86.56
2022-11-25T08:11:33.169Z,89.08
2022-11-25T08:14:01.502Z,87.84
2022-11-25T08:16:31.623Z,88.36
2022-11-25T08:19:00.482Z,87.91
2022-11-25T08:21:28.634Z,86.96
2022-11-25T08:23:58.272Z,86.14
2022-11-25T08:26:31.239Z,85.60
2022-11-25T08:29:00.048Z,85.72
2022-11-25T08:31:30.130Z,85.32
2022-11-25T08:33:58.940Z,85.99
2022-11-25T08:36:27.523Z,85.47
2022-11-25T08:38:57.951Z,85.13
2022-11-25T08:41:29.951Z,85.34
2022-11-25T08:43:59.227Z,85.30
2022-11-25T08:46:30.217Z,84.72
2022-11-25T08:48:58.279Z,84.56
2022-11-25T08:51:30.163Z,84.26
2022-11-25T08:53:58.787Z,84.20
2022-11-25T08:56:28.415Z,83.92
2022-11-25T08:58:56.932Z,84.02
2022-11-25T09:01:25.956Z,84.10
2022-11-25T09:03:56.527Z,81.95
2022-11-25T09:06:25.903Z,81.81
2022-11-25T09:08:57.313Z,82.11
2022-11-25T09:11:26.488Z,82.60
2022-11-25T09:13:56.130Z,82.81
2022-11-25T09:16:26.598Z,82.62
2022-11-25T09:18:56.347Z,82.83
2022-11-25T09:21:25.853Z,82.55
2022-11-25T09:23:54.799Z,82.55
2022-11-25T09:26:25.421Z,82.62
2022-11-25T09:28:53.633Z,82.83
2022-11-25T09:31:24.161Z,82.08
2022-11-25T09:33:52.196Z,82.22
2022-11-25T09:36:21.808Z,83.41
2022-11-25T09:38:49.765Z,83.29
2022-11-25T09:41:52.416Z,83.60
2022-11-25T09:44:53.111Z,83.39
2022-11-25T09:47:31.974Z,84.56
2022-11-25T09:50:14.377Z,85.85
2022-11-25T09:52:49.363Z,85.13
2022-11-25T09:55:20.586Z,85.42
2022-11-25T09:58:04.546Z,85.85
2022-11-25T10:00:39.150Z,85.71
2022-11-25T10:03:18.307Z,85.74
2022-11-25T10:05:58.923Z,85.78
2022-11-25T10:08:31.125Z,85.17
2022-11-25T10:11:04.098Z,85.53
2022-11-25T10:13:43.099Z,85.55
2022-11-25T10:16:21.774Z,85.89
2022-11-25T10:19:00.546Z,84.10
2022-11-25T10:21:29.472Z,84.27
2022-11-25T10:23:58.012Z,84.53
2022-11-25T10:26:33.817Z,83.78
2022-11-25T10:29:20.638Z,83.28
2022-11-25T10:31:52.217Z,83.22
2022-11-25T10:34:33.457Z,83.30
2022-11-25T10:37:03.620Z,82.79
2022-11-25T10:39:35.224Z,82.20
2022-11-25T10:42:08.307Z,81.90
2022-11-25T10:44:38.134Z,81.64
2022-11-25T10:47:36.787Z,81.22
2022-11-25T10:50:23.604Z,81.14
2022-11-25T10:52:58.399Z,80.96
2022-11-25T10:55:28.804Z,81.42
2022-11-25T10:57:57.519Z,81.22
2022-11-25T11:00:32.327Z,81.02
2022-11-25T11:03:14.108Z,80.52
2022-11-25T11:05:47.832Z,80.77
2022-11-25T11:08:21.441Z,80.06
2022-11-25T11:11:12.520Z,80.49
2022-11-25T11:13:41.357Z,81.07
2022-11-25T11:16:24.861Z,80.70
2022-11-25T11:18:53.423Z,82.32
2022-11-25T11:21:31.433Z,82.13
2022-11-25T11:24:00.839Z,81.51
2022-11-25T11:26:30.652Z,81.03
2022-11-25T11:29:01.329Z,80.50
2022-11-25T11:31:34.191Z,81.11
2022-11-25T11:34:14.772Z,80.84
2022-11-25T11:36:57.306Z,80.45
2022-11-25T11:39:37.836Z,80.33
2022-11-25T11:42:13.182Z,79.76
2022-11-25T11:44:52.202Z,80.18
2022-11-25T11:47:28.467Z,79.38
2022-11-25T11:50:24.468Z,79.33
2022-11-25T11:52:59.048Z,79.63
2022-11-25T11:56:05.531Z,79.88
2022-11-25T11:58:50.783Z,79.51
2022-11-25T12:01:37.927Z,79.63
2022-11-25T12:04:20.861Z,79.02
2022-11-25T12:07:03.683Z,79.26
2022-11-25T12:09:36.691Z,78.91
2022-11-25T12:12:10.625Z,77.95
2022-11-25T12:14:44.033Z,78.28
2022-11-25T12:17:18.407Z,77.94
2022-11-25T12:19:54.758Z,78.17
2022-11-25T12:22:28.155Z,78.10
2022-11-25T12:25:07.491Z,77.81
2022-11-25T12:27:39.957Z,77.99
2022-11-25T12:30:11.643Z,78.11
2022-11-25T12:32:52.353Z,77.78
2022-11-25T12:35:27.729Z,78.36
2022-11-25T12:38:03.957Z,78.13
2022-11-25T12:40:38.018Z,77.86
2022-11-25T12:43:18.981Z,78.36
2022-11-25T12:45:52.424Z,78.34
2022-11-25T12:48:21.678Z,78.25
2022-11-25T12:51:01.471Z,78.10
2022-11-25T12:53:36.294Z,77.70
2022-11-25T12:56:14.387Z,78.31
2022-11-25T12:59:00.793Z,78.61
2022-11-25T13:01:51.099Z,78.41
2022-11-25T13:04:50.071Z,78.56
2022-11-25T13:07:30.673Z,78.18
2022-11-25T13:10:28.364Z,78.44
2022-11-25T13:13:18.243Z,78.56
2022-11-25T13:15:49.089Z,78.44
2022-11-25T13:18:19.860Z,78.31
2022-11-25T13:20:50.951Z,78.72
2022-11-25T13:23:49.113Z,78.36
2022-11-25T13:26:48.558Z,78.51
2022-11-25T13:29:58.770Z,78.83
2022-11-25T13:32:46.138Z,78.93
2022-11-25T13:35:51.692Z,78.94
2022-11-25T13:39:00.621Z,78.43
2022-11-25T13:41:42.970Z,78.86
2022-11-25T13:44:22.366Z,78.86
2022-11-25T13:46:52.665Z,78.80
2022-11-25T13:49:29.798Z,79.25
2022-11-25T13:52:00.716Z,79.05
2022-11-25T13:54:36.832Z,79.25
2022-11-25T13:57:28.355Z,79.32
2022-11-25T13:59:59.201Z,79.59
2022-11-25T14:02:46.141Z,79.19
2022-11-25T14:05:48.663Z,79.58
2022-11-25T14:08:23.680Z,79.79
2022-11-25T14:11:01.106Z,79.56
2022-11-25T14:14:02.773Z,79.46
2022-11-25T14:16:55.652Z,79.65
2022-11-25T14:20:04.752Z,79.52
2022-11-25T14:22:47.671Z,79.39
2022-11-25T14:25:22.287Z,79.57
2022-11-25T14:27:57.294Z,79.43
2022-11-25T14:30:27.765Z,79.49
2022-11-25T14:32:59.822Z,79.41
2022-11-25T14:35:36.191Z,79.67
2022-11-25T14:38:12.057Z,79.84
2022-11-25T14:40:48.009Z,79.58
2022-11-25T14:43:23.279Z,79.84
2022-11-25T14:46:10.914Z,80.12
2022-11-25T14:48:40.000Z,80.25
2022-11-25T14:51:10.211Z,79.94
2022-11-25T14:53:47.832Z,80.07
2022-11-25T14:56:22.209Z,79.99
2022-11-25T14:58:52.295Z,80.41
2022-11-25T15:01:22.115Z,80.25
2022-11-25T15:03:51.775Z,80.06
2022-11-25T15:06:21.156Z,80.31
2022-11-25T15:08:59.868Z,80.44
2022-11-25T15:11:31.745Z,80.52
2022-11-25T15:14:03.935Z,80.89
2022-11-25T15:16:35.321Z,80.66
2022-11-25T15:19:06.512Z,80.76
2022-11-25T15:21:53.796Z,81.15
2022-11-25T15:24:29.958Z,80.93
2022-11-25T15:27:02.668Z,80.91
2022-11-25T15:29:32.287Z,81.27
2022-11-25T15:32:01.661Z,81.18
2022-11-25T15:34:30.860Z,81.19
2022-11-25T15:37:02.850Z,80.74
2022-11-25T15:39:32.245Z,81.26
2022-11-25T15:42:08.951Z,80.94
2022-11-25T15:44:41.793Z,80.67
2022-11-25T15:47:22.206Z,80.79
2022-11-25T15:50:01.412Z,80.84
2022-11-25T15:52:31.781Z,80.61
2022-11-25T15:55:06.599Z,80.95
2022-11-25T15:57:36.556Z,80.90
2022-11-25T16:00:19.127Z,80.75
2022-11-25T16:02:53.532Z,80.24
2022-11-25T16:05:35.660Z,80.29
2022-11-25T16:08:24.716Z,80.52
2022-11-25T16:10:59.553Z,80.70
2022-11-25T16:13:38.286Z,80.52
2022-11-25T16:16:19.858Z,80.72
2022-11-25T16:19:11.658Z,80.71
2022-11-25T16:21:44.169Z,80.75
2022-11-25T16:24:27.984Z,80.58
2022-11-25T16:27:01.254Z,80.92
2022-11-25T16:29:33.386Z,80.79
2022-11-25T16:32:02.220Z,80.52
2022-11-25T16:34:30.900Z,80.66
2022-11-25T16:36:58.794Z,80.38
2022-11-25T16:39:26.776Z,80.50
2022-11-25T16:41:58.736Z,80.42
2022-11-25T16:44:28.593Z,79.73
2022-11-25T16:46:57.156Z,80.67
2022-11-25T16:49:25.927Z,80.58
2022-11-25T16:51:54.428Z,81.00
2022-11-25T16:54:23.855Z,80.87
2022-11-25T16:56:54.049Z,80.63
2022-11-25T16:59:30.276Z,81.80
2022-11-25T17:01:59.174Z,81.97
2022-11-25T17:04:27.330Z,82.35
2022-11-25T17:07:30.463Z,82.27
2022-11-25T17:09:45.084Z,82.04
2022-11-25T17:12:17.338Z,82.02
2022-11-25T17:14:49.233Z,81.77
2022-11-25T17:17:24.690Z,81.79
2022-11-25T17:19:53.336Z,81.78
2022-11-25T17:22:23.096Z,81.38
2022-11-25T17:24:51.303Z,81.76
2022-11-25T17:27:25.154Z,81.23
2022-11-25T17:29:56.026Z,81.38
2022-11-25T17:32:25.521Z,81.16
2022-11-25T17:34:53.497Z,81.34
2022-11-25T17:37:23.987Z,81.47
2022-11-25T17:39:52.778Z,81.01
2022-11-25T17:42:24.982Z,81.32
2022-11-25T17:44:54.592Z,81.27
2022-11-25T17:47:22.706Z,81.16
2022-11-25T17:49:50.652Z,81.60
2022-11-25T17:52:18.749Z,81.26
2022-11-25T17:54:46.731Z,81.15
2022-11-25T17:57:18.387Z,81.45
2022-11-25T17:59:46.433Z,81.63
2022-11-25T18:02:20.118Z,81.56
2022-11-25T18:04:48.821Z,82.00
2022-11-25T18:07:16.894Z,81.60
2022-11-25T18:09:45.495Z,81.75
2022-11-25T18:12:17.844Z,81.33
2022-11-25T18:14:46.456Z,81.86
2022-11-25T18:17:18.074Z,82.35
2022-11-25T18:19:54.457Z,82.59
2022-11-25T18:22:24.651Z,82.49
2022-11-25T18:24:53.784Z,82.43
2022-11-25T18:27:24.667Z,82.13
2022-11-25T18:29:53.402Z,82.05
2022-11-25T18:32:22.776Z,82.20
2022-11-25T18:34:52.710Z,84.02
2022-11-25T18:37:21.651Z,86.77
2022-11-25T18:39:49.781Z,88.97
2022-11-25T18:42:25.718Z,87.85
2022-11-25T18:44:54.871Z,87.02
2022-11-25T18:47:22.870Z,90.38
2022-11-25T18:49:55.932Z,92.42
2022-11-25T18:52:24.900Z,93.34
2022-11-25T18:54:53.077Z,90.12
2022-11-25T18:57:21.164Z,88.21
2022-11-25T19:00:00.197Z,87.09
2022-11-25T19:02:38.181Z,86.68
2022-11-25T19:05:16.434Z,87.09
2022-11-25T19:07:44.696Z,87.75
2022-11-25T19:10:13.913Z,87.72
2022-11-25T19:12:44.570Z,88.05
2022-11-25T19:15:15.630Z,87.19
2022-11-25T19:17:45.643Z,87.52
2022-11-25T19:20:17.211Z,87.14
2022-11-25T19:22:45.274Z,87.39
2022-11-25T19:25:13.929Z,86.87
2022-11-25T19:27:45.486Z,86.53
2022-11-25T19:30:17.630Z,86.30
2022-11-25T19:32:47.535Z,85.91
2022-11-25T19:35:27.499Z,85.60
2022-11-25T19:37:55.441Z,85.27
2022-11-25T19:40:25.227Z,86.06
2022-11-25T19:42:53.134Z,85.96
2022-11-25T19:45:22.161Z,86.26
2022-11-25T19:47:56.946Z,86.44
2022-11-25T19:50:29.318Z,86.98
2022-11-25T19:52:57.236Z,86.53
2022-11-25T19:55:27.344Z,86.25
2022-11-25T19:57:55.805Z,85.81
2022-11-25T20:00:25.297Z,84.48
2022-11-25T20:02:55.811Z,84.50
2022-11-25T20:05:30.339Z,83.91
2022-11-25T20:07:58.452Z,85.20
2022-11-25T20:10:28.745Z,86.89
2022-11-25T20:12:58.003Z,85.62
2022-11-25T20:15:27.133Z,85.45
2022-11-25T20:17:59.648Z,84.81
2022-11-25T20:20:33.323Z,84.59
2022-11-25T20:23:05.871Z,85.97
2022-11-25T20:25:37.476Z,86.44
2022-11-25T20:28:10.516Z,85.45
2022-11-25T20:30:38.400Z,84.81
2022-11-25T20:33:06.454Z,85.32
2022-11-25T20:35:35.993Z,86.56
2022-11-25T20:38:04.131Z,86.23
2022-11-25T20:40:39.056Z,88.29
2022-11-25T20:43:07.892Z,91.37
2022-11-25T20:45:35.915Z,88.61
2022-11-25T20:48:11.553Z,88.43
2022-11-25T20:50:40.869Z,88.39
2022-11-25T20:53:15.726Z,88.43
2022-11-25T20:55:44.624Z,88.25
2022-11-25T20:58:21.894Z,88.02
2022-11-25T21:00:55.573Z,87.76
2022-11-25T21:03:25.257Z,87.81
2022-11-25T21:05:57.871Z,90.08
2022-11-25T21:08:29.307Z,91.38
2022-11-25T21:10:59.325Z,88.69
2022-11-25T21:13:29.520Z,87.39
2022-11-25T21:15:58.020Z,86.40
2022-11-25T21:18:26.437Z,86.03
2022-11-25T21:20:58.261Z,85.90
2022-11-25T21:23:29.032Z,87.66
2022-11-25T21:26:04.473Z,88.07
2022-11-25T21:28:33.373Z,87.85
2022-11-25T21:31:01.290Z,86.63
2022-11-25T21:33:29.229Z,86.63
2022-11-25T21:35:58.586Z,87.04
2022-11-25T21:38:28.452Z,87.40
2022-11-25T21:40:58.354Z,87.34
2022-11-25T21:43:29.429Z,86.78
2022-11-25T21:46:02.878Z,85.56
2022-11-25T21:48:31.469Z,87.02
2022-11-25T21:51:01.251Z,85.45
2022-11-25T21:53:33.163Z,85.65
2022-11-25T21:56:04.036Z,86.17
2022-11-25T21:58:32.484Z,85.72
2022-11-25T22:01:02.704Z,85.98
2022-11-25T22:03:32.469Z,86.62
2022-11-25T22:06:01.832Z,87.02
2022-11-25T22:08:29.787Z,87.04
2022-11-25T22:10:57.726Z,87.70
2022-11-25T22:13:33.386Z,89.90
2022-11-25T22:16:01.710Z,89.96
2022-11-25T22:18:32.541Z,88.89
2022-11-25T22:21:02.472Z,87.83
2022-11-25T22:23:30.731Z,86.82
2022-11-25T22:25:58.946Z,85.65
2022-11-25T22:28:28.634Z,84.97
2022-11-25T22:30:58.834Z,86.58
2022-11-25T22:33:31.660Z,86.26
2022-11-25T22:36:01.111Z,86.45
2022-11-25T22:38:30.517Z,85.48
2022-11-25T22:41:01.409Z,84.76
2022-11-25T22:43:32.897Z,84.19
2022-11-25T22:46:01.199Z,84.69
2022-11-25T22:48:33.046Z,84.13
2022-11-25T22:51:02.845Z,84.44
2022-11-25T22:53:30.975Z,84.03
2022-11-25T22:55:59.118Z,84.65
2022-11-25T22:58:29.231Z,84.22
2022-11-25T23:00:58.201Z,84.20
2022-11-25T23:03:29.321Z,84.20
2022-11-25T23:05:58.393Z,83.92
2022-11-25T23:08:31.717Z,84.29
2022-11-25T23:11:00.017Z,84.42
2022-11-25T23:13:28.159Z,84.36
2022-11-25T23:15:58.241Z,84.79
2022-11-25T23:18:31.757Z,84.55
2022-11-25T23:21:02.096Z,84.10
2022-11-25T23:23:31.873Z,83.96
2022-11-25T23:26:00.264Z,84.15
2022-11-25T23:28:28.176Z,83.88
2022-11-25T23:30:57.434Z,83.70
2022-11-25T23:33:30.800Z,83.83
2022-11-25T23:36:02.470Z,83.45
2022-11-25T23:38:34.471Z,85.75
2022-11-25T23:41:02.524Z,86.83
2022-11-25T23:43:30.818Z,90.02
2022-11-25T23:45:58.880Z,90.96
2022-11-25T23:48:31.157Z,90.09
2022-11-25T23:51:00.366Z,91.32
2022-11-25T23:53:31.454Z,91.55
2022-11-25T23:56:00.953Z,90.22
2022-11-25T23:58:29.152Z,89.99
